sensor_id;sensor_type;location;lat;lon;timestamp;temperature;humidity
34406;DHT22;20658;45.630;8.886;2023-04-24T00:01:55;12.70;99.90
34406;DHT22;20658;45.630;8.886;2023-04-24T00:04:30;12.70;99.90
34406;DHT22;20658;45.630;8.886;2023-04-24T00:06:58;12.70;99.90
34406;DHT22;20658;45.630;8.886;2023-04-24T00:09:31;12.60;99.90
34406;DHT22;20658;45.630;8.886;2023-04-24T00:12:05;12.50;99.90
34406;DHT22;20658;45.630;8.886;2023-04-24T00:14:38;12.80;99.90
34406;DHT22;20658;45.630;8.886;2023-04-24T00:17:08;12.40;99.90
34406;DHT22;20658;45.630;8.886;2023-04-24T00:19:41;12.40;99.90
34406;DHT22;20658;45.630;8.886;2023-04-24T00:22:09;12.30;99.90
34406;DHT22;20658;45.630;8.886;2023-04-24T00:24:43;12.30;99.90
34406;DHT22;20658;45.630;8.886;2023-04-24T00:27:16;12.50;99.90
34406;DHT22;20658;45.630;8.886;2023-04-24T00:29:49;12.20;99.90
34406;DHT22;20658;45.630;8.886;2023-04-24T00:32:19;12.20;99.90
34406;DHT22;20658;45.630;8.886;2023-04-24T00:34:52;12.30;99.90
34406;DHT22;20658;45.630;8.886;2023-04-24T00:37:25;12.20;99.90
34406;DHT22;20658;45.630;8.886;2023-04-24T00:39:54;12.10;99.90
34406;DHT22;20658;45.630;8.886;2023-04-24T00:42:22;12.50;99.90
34406;DHT22;20658;45.630;8.886;2023-04-24T00:44:56;12.10;99.90
34406;DHT22;20658;45.630;8.886;2023-04-24T00:47:32;12.10;99.90
34406;DHT22;20658;45.630;8.886;2023-04-24T00:50:01;12.30;99.90
34406;DHT22;20658;45.630;8.886;2023-04-24T00:52:35;12.00;99.90
34406;DHT22;20658;45.630;8.886;2023-04-24T00:55:09;12.10;99.90
34406;DHT22;20658;45.630;8.886;2023-04-24T00:57:43;12.10;99.90
34406;DHT22;20658;45.630;8.886;2023-04-24T01:00:17;12.10;99.90
34406;DHT22;20658;45.630;8.886;2023-04-24T01:02:51;12.00;99.90
34406;DHT22;20658;45.630;8.886;2023-04-24T01:05:26;12.00;99.90
34406;DHT22;20658;45.630;8.886;2023-04-24T01:07:59;11.90;99.90
34406;DHT22;20658;45.630;8.886;2023-04-24T01:10:33;12.00;99.90
34406;DHT22;20658;45.630;8.886;2023-04-24T01:13:08;12.00;99.90
34406;DHT22;20658;45.630;8.886;2023-04-24T01:15:44;12.00;99.90
34406;DHT22;20658;45.630;8.886;2023-04-24T01:18:19;12.00;99.90
34406;DHT22;20658;45.630;8.886;2023-04-24T01:20:56;12.00;99.90
34406;DHT22;20658;45.630;8.886;2023-04-24T01:23:32;12.20;99.90
34406;DHT22;20658;45.630;8.886;2023-04-24T01:26:05;11.90;99.90
34406;DHT22;20658;45.630;8.886;2023-04-24T01:28:39;11.80;99.90
34406;DHT22;20658;45.630;8.886;2023-04-24T01:31:12;12.00;99.90
34406;DHT22;20658;45.630;8.886;2023-04-24T01:33:47;12.10;99.90
34406;DHT22;20658;45.630;8.886;2023-04-24T01:36:21;11.60;99.90
34406;DHT22;20658;45.630;8.886;2023-04-24T01:38:56;11.90;99.90
34406;DHT22;20658;45.630;8.886;2023-04-24T01:41:29;11.60;99.90
34406;DHT22;20658;45.630;8.886;2023-04-24T01:44:03;11.80;99.90
34406;DHT22;20658;45.630;8.886;2023-04-24T01:46:36;11.50;99.90
34406;DHT22;20658;45.630;8.886;2023-04-24T01:49:10;11.40;99.90
34406;DHT22;20658;45.630;8.886;2023-04-24T01:51:44;11.50;99.90
34406;DHT22;20658;45.630;8.886;2023-04-24T01:54:19;11.40;99.90
34406;DHT22;20658;45.630;8.886;2023-04-24T01:56:47;11.30;99.90
34406;DHT22;20658;45.630;8.886;2023-04-24T01:59:23;11.30;99.90
34406;DHT22;20658;45.630;8.886;2023-04-24T02:01:53;11.40;99.90
34406;DHT22;20658;45.630;8.886;2023-04-24T02:04:26;11.20;99.90
34406;DHT22;20658;45.630;8.886;2023-04-24T02:06:59;11.10;99.90
34406;DHT22;20658;45.630;8.886;2023-04-24T02:09:34;11.10;99.90
34406;DHT22;20658;45.630;8.886;2023-04-24T02:12:07;11.00;99.90
34406;DHT22;20658;45.630;8.886;2023-04-24T02:14:35;11.30;99.90
34406;DHT22;20658;45.630;8.886;2023-04-24T02:17:10;11.10;99.90
34406;DHT22;20658;45.630;8.886;2023-04-24T02:19:44;11.10;99.90
34406;DHT22;20658;45.630;8.886;2023-04-24T02:22:17;11.00;99.90
34406;DHT22;20658;45.630;8.886;2023-04-24T02:24:52;11.30;99.90
34406;DHT22;20658;45.630;8.886;2023-04-24T02:27:25;10.90;99.90
34406;DHT22;20658;45.630;8.886;2023-04-24T02:29:54;11.20;99.90
34406;DHT22;20658;45.630;8.886;2023-04-24T02:32:27;11.20;99.90
34406;DHT22;20658;45.630;8.886;2023-04-24T02:34:57;10.90;99.90
34406;DHT22;20658;45.630;8.886;2023-04-24T02:37:31;11.10;99.90
34406;DHT22;20658;45.630;8.886;2023-04-24T02:40:07;10.80;99.90
34406;DHT22;20658;45.630;8.886;2023-04-24T02:42:36;10.80;99.90
34406;DHT22;20658;45.630;8.886;2023-04-24T02:45:10;10.70;99.90
34406;DHT22;20658;45.630;8.886;2023-04-24T02:47:44;10.70;99.90
34406;DHT22;20658;45.630;8.886;2023-04-24T02:50:17;10.70;99.90
34406;DHT22;20658;45.630;8.886;2023-04-24T02:52:45;10.60;99.90
34406;DHT22;20658;45.630;8.886;2023-04-24T02:55:15;10.60;99.90
34406;DHT22;20658;45.630;8.886;2023-04-24T02:57:48;10.60;99.90
34406;DHT22;20658;45.630;8.886;2023-04-24T03:00:22;10.50;99.90
34406;DHT22;20658;45.630;8.886;2023-04-24T03:02:55;10.50;99.90
34406;DHT22;20658;45.630;8.886;2023-04-24T03:05:29;10.50;99.90
34406;DHT22;20658;45.630;8.886;2023-04-24T03:08:02;10.50;99.90
34406;DHT22;20658;45.630;8.886;2023-04-24T03:10:37;10.50;99.90
34406;DHT22;20658;45.630;8.886;2023-04-24T03:13:10;10.80;99.90
34406;DHT22;20658;45.630;8.886;2023-04-24T03:15:43;10.40;99.90
34406;DHT22;20658;45.630;8.886;2023-04-24T03:18:18;10.40;99.90
34406;DHT22;20658;45.630;8.886;2023-04-24T03:20:52;10.70;99.90
34406;DHT22;20658;45.630;8.886;2023-04-24T03:23:25;10.40;99.90
34406;DHT22;20658;45.630;8.886;2023-04-24T03:26:01;10.30;99.90
34406;DHT22;20658;45.630;8.886;2023-04-24T03:28:37;10.30;99.90
34406;DHT22;20658;45.630;8.886;2023-04-24T03:31:10;10.60;99.90
34406;DHT22;20658;45.630;8.886;2023-04-24T03:33:39;10.20;99.90
34406;DHT22;20658;45.630;8.886;2023-04-24T03:36:12;10.20;99.90
34406;DHT22;20658;45.630;8.886;2023-04-24T03:38:45;10.20;99.90
34406;DHT22;20658;45.630;8.886;2023-04-24T03:41:26;10.20;99.90
34406;DHT22;20658;45.630;8.886;2023-04-24T03:44:20;10.10;99.90
34406;DHT22;20658;45.630;8.886;2023-04-24T03:46:49;10.10;99.90
34406;DHT22;20658;45.630;8.886;2023-04-24T03:49:24;10.10;99.90
34406;DHT22;20658;45.630;8.886;2023-04-24T03:51:57;10.10;99.90
34406;DHT22;20658;45.630;8.886;2023-04-24T03:54:31;10.10;99.90
34406;DHT22;20658;45.630;8.886;2023-04-24T03:57:01;10.00;99.90
34406;DHT22;20658;45.630;8.886;2023-04-24T03:59:31;10.40;99.90
34406;DHT22;20658;45.630;8.886;2023-04-24T04:02:09;10.00;99.90
34406;DHT22;20658;45.630;8.886;2023-04-24T04:04:43;10.30;99.90
34406;DHT22;20658;45.630;8.886;2023-04-24T04:07:11;10.30;99.90
34406;DHT22;20658;45.630;8.886;2023-04-24T04:09:39;10.30;99.90
34406;DHT22;20658;45.630;8.886;2023-04-24T04:12:14;10.00;99.90
34406;DHT22;20658;45.630;8.886;2023-04-24T04:14:43;10.00;99.90
34406;DHT22;20658;45.630;8.886;2023-04-24T04:17:16;10.10;99.90
34406;DHT22;20658;45.630;8.886;2023-04-24T04:19:49;9.90;99.90
34406;DHT22;20658;45.630;8.886;2023-04-24T04:22:22;9.90;99.90
34406;DHT22;20658;45.630;8.886;2023-04-24T04:24:58;9.90;99.90
34406;DHT22;20658;45.630;8.886;2023-04-24T04:27:33;9.90;99.90
34406;DHT22;20658;45.630;8.886;2023-04-24T04:30:10;9.80;99.90
34406;DHT22;20658;45.630;8.886;2023-04-24T04:32:54;9.90;99.90
34406;DHT22;20658;45.630;8.886;2023-04-24T04:35:29;10.30;99.90
34406;DHT22;20658;45.630;8.886;2023-04-24T04:38:02;9.80;99.90
34406;DHT22;20658;45.630;8.886;2023-04-24T04:40:41;9.80;99.90
34406;DHT22;20658;45.630;8.886;2023-04-24T04:43:18;10.40;99.90
34406;DHT22;20658;45.630;8.886;2023-04-24T04:45:50;9.70;99.90
34406;DHT22;20658;45.630;8.886;2023-04-24T04:49:02;9.80;99.90
34406;DHT22;20658;45.630;8.886;2023-04-24T04:51:36;9.80;99.90
34406;DHT22;20658;45.630;8.886;2023-04-24T04:54:10;9.70;99.90
34406;DHT22;20658;45.630;8.886;2023-04-24T04:56:38;9.70;99.90
34406;DHT22;20658;45.630;8.886;2023-04-24T04:59:13;9.70;99.90
34406;DHT22;20658;45.630;8.886;2023-04-24T05:01:41;9.70;99.90
34406;DHT22;20658;45.630;8.886;2023-04-24T05:04:16;9.70;99.90
34406;DHT22;20658;45.630;8.886;2023-04-24T05:06:49;9.70;99.90
34406;DHT22;20658;45.630;8.886;2023-04-24T05:09:25;9.70;99.90
34406;DHT22;20658;45.630;8.886;2023-04-24T05:12:03;9.70;99.90
34406;DHT22;20658;45.630;8.886;2023-04-24T05:14:46;9.70;99.90
34406;DHT22;20658;45.630;8.886;2023-04-24T05:17:19;9.70;99.90
34406;DHT22;20658;45.630;8.886;2023-04-24T05:19:54;9.70;99.90
34406;DHT22;20658;45.630;8.886;2023-04-24T05:22:28;9.70;99.90
34406;DHT22;20658;45.630;8.886;2023-04-24T05:25:02;9.70;99.90
34406;DHT22;20658;45.630;8.886;2023-04-24T05:27:52;9.70;99.90
34406;DHT22;20658;45.630;8.886;2023-04-24T05:30:27;9.70;99.90
34406;DHT22;20658;45.630;8.886;2023-04-24T05:33:01;9.80;99.90
34406;DHT22;20658;45.630;8.886;2023-04-24T05:35:35;10.10;99.90
34406;DHT22;20658;45.630;8.886;2023-04-24T05:38:08;10.00;99.90
34406;DHT22;20658;45.630;8.886;2023-04-24T05:40:41;10.10;99.90
34406;DHT22;20658;45.630;8.886;2023-04-24T05:43:14;10.10;99.90
34406;DHT22;20658;45.630;8.886;2023-04-24T05:45:49;10.20;99.90
34406;DHT22;20658;45.630;8.886;2023-04-24T05:48:22;10.30;99.90
34406;DHT22;20658;45.630;8.886;2023-04-24T05:50:55;10.40;99.90
34406;DHT22;20658;45.630;8.886;2023-04-24T05:53:29;10.50;99.90
34406;DHT22;20658;45.630;8.886;2023-04-24T05:56:02;10.70;99.90
34406;DHT22;20658;45.630;8.886;2023-04-24T05:58:36;10.80;99.90
34406;DHT22;20658;45.630;8.886;2023-04-24T06:01:11;10.90;99.90
34406;DHT22;20658;45.630;8.886;2023-04-24T06:03:41;11.00;99.90
34406;DHT22;20658;45.630;8.886;2023-04-24T06:06:14;11.20;99.90
34406;DHT22;20658;45.630;8.886;2023-04-24T06:08:47;11.40;99.90
34406;DHT22;20658;45.630;8.886;2023-04-24T06:11:21;11.60;99.90
34406;DHT22;20658;45.630;8.886;2023-04-24T06:13:54;11.60;99.70
34406;DHT22;20658;45.630;8.886;2023-04-24T06:16:38;11.80;99.10
34406;DHT22;20658;45.630;8.886;2023-04-24T06:19:26;11.90;98.20
34406;DHT22;20658;45.630;8.886;2023-04-24T06:21:59;12.20;96.80
34406;DHT22;20658;45.630;8.886;2023-04-24T06:24:33;12.40;95.40
34406;DHT22;20658;45.630;8.886;2023-04-24T06:27:07;12.50;95.10
34406;DHT22;20658;45.630;8.886;2023-04-24T06:29:40;13.00;94.00
34406;DHT22;20658;45.630;8.886;2023-04-24T06:32:15;13.10;93.30
34406;DHT22;20658;45.630;8.886;2023-04-24T06:34:48;13.60;92.10
34406;DHT22;20658;45.630;8.886;2023-04-24T06:37:21;13.30;91.40
34406;DHT22;20658;45.630;8.886;2023-04-24T06:39:50;13.40;89.90
34406;DHT22;20658;45.630;8.886;2023-04-24T06:42:23;13.80;90.00
34406;DHT22;20658;45.630;8.886;2023-04-24T06:44:56;13.30;89.50
34406;DHT22;20658;45.630;8.886;2023-04-24T06:47:26;13.60;90.30
34406;DHT22;20658;45.630;8.886;2023-04-24T06:49:54;13.90;89.30
34406;DHT22;20658;45.630;8.886;2023-04-24T06:52:28;14.20;87.70
34406;DHT22;20658;45.630;8.886;2023-04-24T06:55:05;14.00;86.00
34406;DHT22;20658;45.630;8.886;2023-04-24T06:57:39;14.10;85.90
34406;DHT22;20658;45.630;8.886;2023-04-24T07:00:09;13.90;86.00
34406;DHT22;20658;45.630;8.886;2023-04-24T07:02:44;13.90;86.80
34406;DHT22;20658;45.630;8.886;2023-04-24T07:05:17;13.90;85.40
34406;DHT22;20658;45.630;8.886;2023-04-24T07:07:52;14.10;83.50
34406;DHT22;20658;45.630;8.886;2023-04-24T07:10:25;14.40;83.60
34406;DHT22;20658;45.630;8.886;2023-04-24T07:13:00;14.70;82.70
34406;DHT22;20658;45.630;8.886;2023-04-24T07:15:33;14.80;80.50
34406;DHT22;20658;45.630;8.886;2023-04-24T07:18:08;14.90;79.90
34406;DHT22;20658;45.630;8.886;2023-04-24T07:20:42;14.80;76.00
34406;DHT22;20658;45.630;8.886;2023-04-24T07:23:15;14.90;78.00
34406;DHT22;20658;45.630;8.886;2023-04-24T07:25:49;15.20;76.30
34406;DHT22;20658;45.630;8.886;2023-04-24T07:28:22;15.30;74.20
34406;DHT22;20658;45.630;8.886;2023-04-24T07:30:55;15.30;74.10
34406;DHT22;20658;45.630;8.886;2023-04-24T07:33:30;15.80;74.10
34406;DHT22;20658;45.630;8.886;2023-04-24T07:36:03;16.10;72.90
34406;DHT22;20658;45.630;8.886;2023-04-24T07:38:37;15.80;71.50
34406;DHT22;20658;45.630;8.886;2023-04-24T07:41:10;15.90;73.00
34406;DHT22;20658;45.630;8.886;2023-04-24T07:43:44;16.00;72.10
34406;DHT22;20658;45.630;8.886;2023-04-24T07:46:17;16.10;72.60
34406;DHT22;20658;45.630;8.886;2023-04-24T07:48:52;16.00;72.20
34406;DHT22;20658;45.630;8.886;2023-04-24T07:51:25;16.20;70.70
34406;DHT22;20658;45.630;8.886;2023-04-24T07:53:59;16.50;70.70
34406;DHT22;20658;45.630;8.886;2023-04-24T07:56:35;16.40;67.90
34406;DHT22;20658;45.630;8.886;2023-04-24T07:59:06;16.70;67.80
34406;DHT22;20658;45.630;8.886;2023-04-24T08:01:41;16.60;66.90
34406;DHT22;20658;45.630;8.886;2023-04-24T08:04:16;16.50;65.80
34406;DHT22;20658;45.630;8.886;2023-04-24T08:06:49;16.70;66.10
34406;DHT22;20658;45.630;8.886;2023-04-24T08:09:22;17.30;68.70
34406;DHT22;20658;45.630;8.886;2023-04-24T08:11:56;17.00;67.00
34406;DHT22;20658;45.630;8.886;2023-04-24T08:14:29;17.00;66.70
34406;DHT22;20658;45.630;8.886;2023-04-24T08:17:03;17.40;65.30
34406;DHT22;20658;45.630;8.886;2023-04-24T08:19:37;16.80;65.60
34406;DHT22;20658;45.630;8.886;2023-04-24T08:22:14;17.00;66.00
34406;DHT22;20658;45.630;8.886;2023-04-24T08:24:48;17.40;64.60
34406;DHT22;20658;45.630;8.886;2023-04-24T08:27:21;17.70;63.90
34406;DHT22;20658;45.630;8.886;2023-04-24T08:29:54;17.50;61.80
34406;DHT22;20658;45.630;8.886;2023-04-24T08:32:28;17.30;62.60
34406;DHT22;20658;45.630;8.886;2023-04-24T08:35:03;17.30;62.20
34406;DHT22;20658;45.630;8.886;2023-04-24T08:37:37;17.40;62.40
34406;DHT22;20658;45.630;8.886;2023-04-24T08:40:13;17.50;62.20
34406;DHT22;20658;45.630;8.886;2023-04-24T08:42:47;17.50;61.40
34406;DHT22;20658;45.630;8.886;2023-04-24T08:45:22;17.40;61.10
34406;DHT22;20658;45.630;8.886;2023-04-24T08:47:57;17.50;60.00
34406;DHT22;20658;45.630;8.886;2023-04-24T08:50:34;17.60;60.10
34406;DHT22;20658;45.630;8.886;2023-04-24T08:53:08;17.70;58.00
34406;DHT22;20658;45.630;8.886;2023-04-24T08:55:43;17.80;58.60
34406;DHT22;20658;45.630;8.886;2023-04-24T08:58:20;18.00;58.30
34406;DHT22;20658;45.630;8.886;2023-04-24T09:00:49;17.90;56.80
34406;DHT22;20658;45.630;8.886;2023-04-24T09:03:22;18.00;56.30
34406;DHT22;20658;45.630;8.886;2023-04-24T09:05:58;17.70;57.10
34406;DHT22;20658;45.630;8.886;2023-04-24T09:08:32;18.00;57.00
34406;DHT22;20658;45.630;8.886;2023-04-24T09:11:06;18.20;58.00
34406;DHT22;20658;45.630;8.886;2023-04-24T09:13:40;18.50;56.80
34406;DHT22;20658;45.630;8.886;2023-04-24T09:16:14;18.60;56.60
34406;DHT22;20658;45.630;8.886;2023-04-24T09:18:47;18.50;56.40
34406;DHT22;20658;45.630;8.886;2023-04-24T09:21:22;18.50;55.70
34406;DHT22;20658;45.630;8.886;2023-04-24T09:23:59;18.50;56.90
34406;DHT22;20658;45.630;8.886;2023-04-24T09:26:35;18.80;56.80
34406;DHT22;20658;45.630;8.886;2023-04-24T09:29:14;18.70;56.70
34406;DHT22;20658;45.630;8.886;2023-04-24T09:31:48;18.60;57.00
34406;DHT22;20658;45.630;8.886;2023-04-24T09:34:22;18.80;56.30
34406;DHT22;20658;45.630;8.886;2023-04-24T09:36:58;19.00;56.90
34406;DHT22;20658;45.630;8.886;2023-04-24T09:39:31;18.80;56.70
34406;DHT22;20658;45.630;8.886;2023-04-24T09:42:04;19.00;56.40
34406;DHT22;20658;45.630;8.886;2023-04-24T09:44:38;18.70;54.50
34406;DHT22;20658;45.630;8.886;2023-04-24T09:47:11;18.80;54.00
34406;DHT22;20658;45.630;8.886;2023-04-24T09:49:44;18.80;55.30
34406;DHT22;20658;45.630;8.886;2023-04-24T09:52:19;19.00;54.50
34406;DHT22;20658;45.630;8.886;2023-04-24T09:54:53;19.20;55.30
34406;DHT22;20658;45.630;8.886;2023-04-24T09:57:26;19.20;55.60
34406;DHT22;20658;45.630;8.886;2023-04-24T10:00:00;19.30;54.70
34406;DHT22;20658;45.630;8.886;2023-04-24T10:02:37;19.20;55.30
34406;DHT22;20658;45.630;8.886;2023-04-24T10:05:11;19.30;54.60
34406;DHT22;20658;45.630;8.886;2023-04-24T10:07:46;19.30;55.10
34406;DHT22;20658;45.630;8.886;2023-04-24T10:10:19;19.50;55.10
34406;DHT22;20658;45.630;8.886;2023-04-24T10:12:53;19.70;53.60
34406;DHT22;20658;45.630;8.886;2023-04-24T10:15:26;20.00;53.50
34406;DHT22;20658;45.630;8.886;2023-04-24T10:18:00;20.10;54.40
34406;DHT22;20658;45.630;8.886;2023-04-24T10:20:35;20.30;52.60
34406;DHT22;20658;45.630;8.886;2023-04-24T10:23:11;20.20;52.20
34406;DHT22;20658;45.630;8.886;2023-04-24T10:25:45;19.90;53.40
34406;DHT22;20658;45.630;8.886;2023-04-24T10:28:19;19.90;54.50
34406;DHT22;20658;45.630;8.886;2023-04-24T10:30:54;20.10;55.40
34406;DHT22;20658;45.630;8.886;2023-04-24T10:33:28;20.10;54.40
34406;DHT22;20658;45.630;8.886;2023-04-24T10:36:03;20.40;54.50
34406;DHT22;20658;45.630;8.886;2023-04-24T10:38:40;20.50;54.00
34406;DHT22;20658;45.630;8.886;2023-04-24T10:41:14;20.60;54.00
34406;DHT22;20658;45.630;8.886;2023-04-24T10:44:04;20.80;54.10
34406;DHT22;20658;45.630;8.886;2023-04-24T10:46:39;20.90;52.60
34406;DHT22;20658;45.630;8.886;2023-04-24T10:49:15;21.10;52.40
34406;DHT22;20658;45.630;8.886;2023-04-24T10:51:50;21.00;52.10
34406;DHT22;20658;45.630;8.886;2023-04-24T10:54:27;21.10;51.60
34406;DHT22;20658;45.630;8.886;2023-04-24T10:57:26;21.30;51.00
34406;DHT22;20658;45.630;8.886;2023-04-24T11:00:16;21.40;50.20
34406;DHT22;20658;45.630;8.886;2023-04-24T11:02:52;21.30;50.90
34406;DHT22;20658;45.630;8.886;2023-04-24T11:05:50;21.10;52.00
34406;DHT22;20658;45.630;8.886;2023-04-24T11:08:27;21.50;52.40
34406;DHT22;20658;45.630;8.886;2023-04-24T11:11:11;21.20;51.60
34406;DHT22;20658;45.630;8.886;2023-04-24T11:14:07;21.00;52.00
34406;DHT22;20658;45.630;8.886;2023-04-24T11:16:44;20.80;54.90
34406;DHT22;20658;45.630;8.886;2023-04-24T11:19:25;20.80;54.50
34406;DHT22;20658;45.630;8.886;2023-04-24T11:22:01;20.80;53.30
34406;DHT22;20658;45.630;8.886;2023-04-24T11:24:32;21.20;54.10
34406;DHT22;20658;45.630;8.886;2023-04-24T11:27:20;21.50;51.70
34406;DHT22;20658;45.630;8.886;2023-04-24T11:29:59;21.70;52.00
34406;DHT22;20658;45.630;8.886;2023-04-24T11:32:30;22.00;51.30
34406;DHT22;20658;45.630;8.886;2023-04-24T11:35:08;22.10;49.60
34406;DHT22;20658;45.630;8.886;2023-04-24T11:37:46;22.00;48.80
34406;DHT22;20658;45.630;8.886;2023-04-24T11:40:22;22.20;48.60
34406;DHT22;20658;45.630;8.886;2023-04-24T11:43:00;21.50;47.40
34406;DHT22;20658;45.630;8.886;2023-04-24T11:45:33;21.60;48.20
34406;DHT22;20658;45.630;8.886;2023-04-24T11:48:06;21.70;48.10
34406;DHT22;20658;45.630;8.886;2023-04-24T11:50:46;22.00;47.80
34406;DHT22;20658;45.630;8.886;2023-04-24T11:53:20;22.20;47.10
34406;DHT22;20658;45.630;8.886;2023-04-24T11:55:48;22.60;47.00
34406;DHT22;20658;45.630;8.886;2023-04-24T11:58:23;22.90;45.40
34406;DHT22;20658;45.630;8.886;2023-04-24T12:00:58;22.50;43.30
34406;DHT22;20658;45.630;8.886;2023-04-24T12:03:32;22.60;45.20
34406;DHT22;20658;45.630;8.886;2023-04-24T12:06:06;23.00;44.90
34406;DHT22;20658;45.630;8.886;2023-04-24T12:08:40;22.80;43.40
34406;DHT22;20658;45.630;8.886;2023-04-24T12:11:15;22.80;44.10
34406;DHT22;20658;45.630;8.886;2023-04-24T12:13:53;22.90;42.90
34406;DHT22;20658;45.630;8.886;2023-04-24T12:16:26;22.60;40.60
34406;DHT22;20658;45.630;8.886;2023-04-24T12:19:01;22.90;41.30
34406;DHT22;20658;45.630;8.886;2023-04-24T12:21:34;23.20;39.40
34406;DHT22;20658;45.630;8.886;2023-04-24T12:24:08;22.90;37.10
34406;DHT22;20658;45.630;8.886;2023-04-24T12:26:43;23.00;36.60
34406;DHT22;20658;45.630;8.886;2023-04-24T12:29:21;23.40;38.20
34406;DHT22;20658;45.630;8.886;2023-04-24T12:31:54;23.40;38.90
34406;DHT22;20658;45.630;8.886;2023-04-24T12:34:28;23.00;38.80
34406;DHT22;20658;45.630;8.886;2023-04-24T12:37:10;23.00;37.00
34406;DHT22;20658;45.630;8.886;2023-04-24T12:39:58;23.10;37.00
34406;DHT22;20658;45.630;8.886;2023-04-24T12:42:33;23.00;35.50
34406;DHT22;20658;45.630;8.886;2023-04-24T12:45:06;22.70;36.30
34406;DHT22;20658;45.630;8.886;2023-04-24T12:47:40;23.10;36.30
34406;DHT22;20658;45.630;8.886;2023-04-24T12:50:15;23.40;37.30
34406;DHT22;20658;45.630;8.886;2023-04-24T12:52:48;23.60;37.90
34406;DHT22;20658;45.630;8.886;2023-04-24T12:55:22;23.80;38.30
34406;DHT22;20658;45.630;8.886;2023-04-24T12:57:55;23.90;38.40
34406;DHT22;20658;45.630;8.886;2023-04-24T13:00:31;23.50;39.30
34406;DHT22;20658;45.630;8.886;2023-04-24T13:03:04;23.70;38.20
34406;DHT22;20658;45.630;8.886;2023-04-24T13:05:33;24.20;38.60
34406;DHT22;20658;45.630;8.886;2023-04-24T13:08:01;24.50;36.50
34406;DHT22;20658;45.630;8.886;2023-04-24T13:10:35;24.80;37.30
34406;DHT22;20658;45.630;8.886;2023-04-24T13:13:08;24.90;37.10
34406;DHT22;20658;45.630;8.886;2023-04-24T13:15:38;25.00;36.20
34406;DHT22;20658;45.630;8.886;2023-04-24T13:18:06;24.40;36.40
34406;DHT22;20658;45.630;8.886;2023-04-24T13:20:35;24.20;36.20
34406;DHT22;20658;45.630;8.886;2023-04-24T13:23:03;24.20;35.90
34406;DHT22;20658;45.630;8.886;2023-04-24T13:25:36;24.20;35.70
34406;DHT22;20658;45.630;8.886;2023-04-24T13:28:10;24.30;33.10
34406;DHT22;20658;45.630;8.886;2023-04-24T13:30:45;24.00;31.20
34406;DHT22;20658;45.630;8.886;2023-04-24T13:33:20;23.80;32.40
34406;DHT22;20658;45.630;8.886;2023-04-24T13:35:48;24.10;32.90
34406;DHT22;20658;45.630;8.886;2023-04-24T13:38:21;24.40;33.10
34406;DHT22;20658;45.630;8.886;2023-04-24T13:40:55;24.30;34.60
34406;DHT22;20658;45.630;8.886;2023-04-24T13:43:28;24.30;35.20
34406;DHT22;20658;45.630;8.886;2023-04-24T13:46:03;24.00;33.60
34406;DHT22;20658;45.630;8.886;2023-04-24T13:48:36;24.20;34.30
34406;DHT22;20658;45.630;8.886;2023-04-24T13:51:05;24.40;33.40
34406;DHT22;20658;45.630;8.886;2023-04-24T13:53:38;24.30;33.40
34406;DHT22;20658;45.630;8.886;2023-04-24T13:56:11;24.10;33.40
34406;DHT22;20658;45.630;8.886;2023-04-24T13:58:40;24.00;34.00
34406;DHT22;20658;45.630;8.886;2023-04-24T14:01:11;23.90;35.20
34406;DHT22;20658;45.630;8.886;2023-04-24T14:03:44;23.80;33.90
34406;DHT22;20658;45.630;8.886;2023-04-24T14:06:13;23.80;34.70
34406;DHT22;20658;45.630;8.886;2023-04-24T14:08:41;24.20;34.20
34406;DHT22;20658;45.630;8.886;2023-04-24T14:11:10;24.70;32.10
34406;DHT22;20658;45.630;8.886;2023-04-24T14:13:38;24.90;30.40
34406;DHT22;20658;45.630;8.886;2023-04-24T14:16:07;25.10;30.80
34406;DHT22;20658;45.630;8.886;2023-04-24T14:18:37;24.80;31.40
34406;DHT22;20658;45.630;8.886;2023-04-24T14:21:06;24.50;32.10
34406;DHT22;20658;45.630;8.886;2023-04-24T14:23:34;24.30;32.50
34406;DHT22;20658;45.630;8.886;2023-04-24T14:26:03;24.00;31.90
34406;DHT22;20658;45.630;8.886;2023-04-24T14:28:32;23.80;31.70
34406;DHT22;20658;45.630;8.886;2023-04-24T14:31:00;23.60;32.00
34406;DHT22;20658;45.630;8.886;2023-04-24T14:33:28;23.90;32.30
34406;DHT22;20658;45.630;8.886;2023-04-24T14:35:58;24.30;32.10
34406;DHT22;20658;45.630;8.886;2023-04-24T14:38:34;25.00;31.20
34406;DHT22;20658;45.630;8.886;2023-04-24T14:41:03;25.20;29.30
34406;DHT22;20658;45.630;8.886;2023-04-24T14:43:35;25.20;29.10
34406;DHT22;20658;45.630;8.886;2023-04-24T14:46:04;25.10;29.10
34406;DHT22;20658;45.630;8.886;2023-04-24T14:48:33;25.50;29.30
34406;DHT22;20658;45.630;8.886;2023-04-24T14:51:03;25.60;29.20
34406;DHT22;20658;45.630;8.886;2023-04-24T14:53:32;25.80;29.30
34406;DHT22;20658;45.630;8.886;2023-04-24T14:56:00;25.90;28.90
34406;DHT22;20658;45.630;8.886;2023-04-24T14:58:29;26.00;29.00
34406;DHT22;20658;45.630;8.886;2023-04-24T15:00:57;26.10;28.20
34406;DHT22;20658;45.630;8.886;2023-04-24T15:03:26;26.00;28.40
34406;DHT22;20658;45.630;8.886;2023-04-24T15:05:56;26.10;28.50
34406;DHT22;20658;45.630;8.886;2023-04-24T15:08:25;25.80;27.60
34406;DHT22;20658;45.630;8.886;2023-04-24T15:10:54;25.30;28.10
34406;DHT22;20658;45.630;8.886;2023-04-24T15:13:23;25.20;29.20
34406;DHT22;20658;45.630;8.886;2023-04-24T15:15:51;25.30;28.90
34406;DHT22;20658;45.630;8.886;2023-04-24T15:18:20;25.50;29.30
34406;DHT22;20658;45.630;8.886;2023-04-24T15:20:48;25.60;29.30
34406;DHT22;20658;45.630;8.886;2023-04-24T15:23:16;25.70;28.60
34406;DHT22;20658;45.630;8.886;2023-04-24T15:25:46;25.80;28.80
34406;DHT22;20658;45.630;8.886;2023-04-24T15:28:15;25.90;28.40
34406;DHT22;20658;45.630;8.886;2023-04-24T15:30:44;25.60;29.00
34406;DHT22;20658;45.630;8.886;2023-04-24T15:33:13;25.80;28.90
34406;DHT22;20658;45.630;8.886;2023-04-24T15:35:41;25.80;28.60
34406;DHT22;20658;45.630;8.886;2023-04-24T15:38:09;25.90;28.10
34406;DHT22;20658;45.630;8.886;2023-04-24T15:40:38;26.20;28.60
34406;DHT22;20658;45.630;8.886;2023-04-24T15:43:08;25.90;28.00
34406;DHT22;20658;45.630;8.886;2023-04-24T15:45:37;25.90;28.50
34406;DHT22;20658;45.630;8.886;2023-04-24T15:48:06;25.80;28.70
34406;DHT22;20658;45.630;8.886;2023-04-24T15:50:34;25.60;29.10
34406;DHT22;20658;45.630;8.886;2023-04-24T15:53:02;25.60;29.00
34406;DHT22;20658;45.630;8.886;2023-04-24T15:55:31;25.90;28.60
34406;DHT22;20658;45.630;8.886;2023-04-24T15:58:00;26.20;29.30
34406;DHT22;20658;45.630;8.886;2023-04-24T16:00:29;26.50;28.40
34406;DHT22;20658;45.630;8.886;2023-04-24T16:03:05;26.50;28.20
34406;DHT22;20658;45.630;8.886;2023-04-24T16:05:38;26.60;28.70
34406;DHT22;20658;45.630;8.886;2023-04-24T16:08:07;26.70;28.30
34406;DHT22;20658;45.630;8.886;2023-04-24T16:10:36;26.40;27.60
34406;DHT22;20658;45.630;8.886;2023-04-24T16:13:04;26.10;28.80